Terminal Aerodrome Forecast
Issued by NWS

Home | Current Version | Previous Version | Text Only | Print | Product List | Glossary On
Versions: 1 2 3 4 5 6 7 8 9 10 11 12 13 14 15 16 17 18 19
000
FTUS43 KDLH 171739
TAFHIB
TAF
KHIB 171739Z 1718/1818 23010G19KT P6SM SKC WS020/26040KT
     FM171900 24011G20KT P6SM SKC
     FM180200 26007KT P6SM SKC WS020/29035KT
     FM180900 25005KT P6SM VCSH BKN060
     FM181500 28006KT P6SM VCSH OVC015=

USA.gov is the U.S. government's official web portal to all federal, state and local government web resources and services.